sensor_id;sensor_type;location;lat;lon;timestamp;pressure;altitude;pressure_sealevel;temperature;humidity
52591;BME280;38483;42.620;25.394;2023-02-11T00:00:58;98728.88;;;-4.35;68.55
52591;BME280;38483;42.620;25.394;2023-02-11T00:03:25;98728.78;;;-4.38;68.15
52591;BME280;38483;42.620;25.394;2023-02-11T00:06:04;98744.56;;;-4.43;68.27
52591;BME280;38483;42.620;25.394;2023-02-11T00:08:35;98732.94;;;-4.60;68.61
52591;BME280;38483;42.620;25.394;2023-02-11T00:11:03;98718.19;;;-4.70;68.84
52591;BME280;38483;42.620;25.394;2023-02-11T00:13:30;98731.31;;;-4.58;69.68
52591;BME280;38483;42.620;25.394;2023-02-11T00:15:57;98721.22;;;-4.58;69.61
52591;BME280;38483;42.620;25.394;2023-02-11T00:18:24;98722.66;;;-4.43;70.01
52591;BME280;38483;42.620;25.394;2023-02-11T00:20:51;98726.44;;;-4.33;68.48
52591;BME280;38483;42.620;25.394;2023-02-11T00:23:18;98727.72;;;-4.43;68.74
52591;BME280;38483;42.620;25.394;2023-02-11T00:25:45;98721.66;;;-4.48;69.67
52591;BME280;38483;42.620;25.394;2023-02-11T00:28:12;98711.66;;;-4.65;69.73
52591;BME280;38483;42.620;25.394;2023-02-11T00:30:39;98713.00;;;-4.73;70.02
52591;BME280;38483;42.620;25.394;2023-02-11T00:33:07;98723.31;;;-4.69;70.57
52591;BME280;38483;42.620;25.394;2023-02-11T00:35:36;98733.03;;;-4.78;70.93
52591;BME280;38483;42.620;25.394;2023-02-11T00:38:06;98727.13;;;-4.78;70.04
52591;BME280;38483;42.620;25.394;2023-02-11T00:40:33;98723.69;;;-4.80;70.26
52591;BME280;38483;42.620;25.394;2023-02-11T00:43:02;98716.78;;;-4.84;70.33
52591;BME280;38483;42.620;25.394;2023-02-11T00:45:29;98713.94;;;-4.92;69.63
52591;BME280;38483;42.620;25.394;2023-02-11T00:47:56;98721.84;;;-4.84;69.84
52591;BME280;38483;42.620;25.394;2023-02-11T00:50:23;98731.81;;;-4.87;70.27
52591;BME280;38483;42.620;25.394;2023-02-11T00:52:50;98707.66;;;-5.02;69.55
52591;BME280;38483;42.620;25.394;2023-02-11T00:55:17;98712.13;;;-4.95;69.97
52591;BME280;38483;42.620;25.394;2023-02-11T00:57:45;98726.03;;;-4.85;69.97
52591;BME280;38483;42.620;25.394;2023-02-11T01:00:15;98734.56;;;-4.81;69.52
52591;BME280;38483;42.620;25.394;2023-02-11T01:02:43;98729.81;;;-4.74;68.84
52591;BME280;38483;42.620;25.394;2023-02-11T01:05:10;98720.06;;;-4.66;68.92
52591;BME280;38483;42.620;25.394;2023-02-11T01:07:37;98705.69;;;-4.67;68.48
52591;BME280;38483;42.620;25.394;2023-02-11T01:10:04;98714.53;;;-4.36;68.99
52591;BME280;38483;42.620;25.394;2023-02-11T01:12:31;98705.06;;;-4.19;67.96
52591;BME280;38483;42.620;25.394;2023-02-11T01:15:02;98704.59;;;-4.09;68.25
52591;BME280;38483;42.620;25.394;2023-02-11T01:17:32;98712.94;;;-3.89;67.82
52591;BME280;38483;42.620;25.394;2023-02-11T01:20:04;98700.41;;;-3.86;67.10
52591;BME280;38483;42.620;25.394;2023-02-11T01:22:32;98703.69;;;-3.89;66.73
52591;BME280;38483;42.620;25.394;2023-02-11T01:24:59;98711.66;;;-3.78;67.27
52591;BME280;38483;42.620;25.394;2023-02-11T01:27:28;98715.06;;;-3.78;66.74
52591;BME280;38483;42.620;25.394;2023-02-11T01:29:56;98712.53;;;-3.78;66.71
52591;BME280;38483;42.620;25.394;2023-02-11T01:32:23;98707.47;;;-3.78;67.22
52591;BME280;38483;42.620;25.394;2023-02-11T01:34:52;98697.34;;;-3.78;67.39
52591;BME280;38483;42.620;25.394;2023-02-11T01:37:19;98695.16;;;-3.91;67.18
52591;BME280;38483;42.620;25.394;2023-02-11T01:39:46;98691.50;;;-3.99;66.95
52591;BME280;38483;42.620;25.394;2023-02-11T01:42:19;98697.03;;;-4.09;68.22
52591;BME280;38483;42.620;25.394;2023-02-11T01:44:51;98686.72;;;-4.36;68.59
52591;BME280;38483;42.620;25.394;2023-02-11T01:47:19;98684.09;;;-4.59;68.54
52591;BME280;38483;42.620;25.394;2023-02-11T01:49:54;98681.53;;;-4.81;70.21
52591;BME280;38483;42.620;25.394;2023-02-11T01:54:55;98691.16;;;-4.73;69.16
52591;BME280;38483;42.620;25.394;2023-02-11T01:57:45;98683.25;;;-4.60;69.71
52591;BME280;38483;42.620;25.394;2023-02-11T02:02:59;98684.09;;;-4.59;68.42
52591;BME280;38483;42.620;25.394;2023-02-11T02:05:42;98687.63;;;-4.56;68.22
52591;BME280;38483;42.620;25.394;2023-02-11T02:11:01;98688.81;;;-4.68;69.26
52591;BME280;38483;42.620;25.394;2023-02-11T02:13:30;98679.00;;;-5.02;69.90
52591;BME280;38483;42.620;25.394;2023-02-11T02:16:20;98673.16;;;-5.22;70.66
52591;BME280;38483;42.620;25.394;2023-02-11T02:24:57;98692.00;;;-5.14;69.80
52591;BME280;38483;42.620;25.394;2023-02-11T02:27:36;98687.81;;;-5.13;70.47
52591;BME280;38483;42.620;25.394;2023-02-11T02:33:22;98687.69;;;-4.75;69.50
52591;BME280;38483;42.620;25.394;2023-02-11T02:35:59;98689.03;;;-4.62;69.31
52591;BME280;38483;42.620;25.394;2023-02-11T02:41:16;98686.25;;;-4.48;68.14
52591;BME280;38483;42.620;25.394;2023-02-11T02:43:47;98669.66;;;-4.41;67.87
52591;BME280;38483;42.620;25.394;2023-02-11T02:48:51;98684.22;;;-4.56;67.88
52591;BME280;38483;42.620;25.394;2023-02-11T02:54:34;98685.53;;;-4.66;69.07
52591;BME280;38483;42.620;25.394;2023-02-11T03:02:54;98693.22;;;-5.04;68.70
52591;BME280;38483;42.620;25.394;2023-02-11T03:08:17;98693.88;;;-5.48;70.86
52591;BME280;38483;42.620;25.394;2023-02-11T03:10:51;98689.38;;;-5.74;71.66
52591;BME280;38483;42.620;25.394;2023-02-11T03:13:22;98687.69;;;-5.94;73.17
52591;BME280;38483;42.620;25.394;2023-02-11T03:15:52;98667.91;;;-6.04;73.00
52591;BME280;38483;42.620;25.394;2023-02-11T03:18:23;98687.28;;;-5.84;73.22
52591;BME280;38483;42.620;25.394;2023-02-11T03:20:53;98691.63;;;-5.80;73.59
52591;BME280;38483;42.620;25.394;2023-02-11T03:23:28;98682.47;;;-5.78;73.09
52591;BME280;38483;42.620;25.394;2023-02-11T03:26:29;98688.97;;;-5.83;72.81
52591;BME280;38483;42.620;25.394;2023-02-11T03:31:40;98684.34;;;-5.93;72.99
52591;BME280;38483;42.620;25.394;2023-02-11T03:34:35;98661.34;;;-6.01;73.10
52591;BME280;38483;42.620;25.394;2023-02-11T03:39:44;98677.16;;;-5.86;72.86
52591;BME280;38483;42.620;25.394;2023-02-11T03:42:13;98670.53;;;-5.82;72.71
52591;BME280;38483;42.620;25.394;2023-02-11T03:44:50;98667.78;;;-5.88;72.79
52591;BME280;38483;42.620;25.394;2023-02-11T03:47:22;98668.34;;;-5.74;72.12
52591;BME280;38483;42.620;25.394;2023-02-11T03:49:52;98664.69;;;-5.62;72.03
52591;BME280;38483;42.620;25.394;2023-02-11T03:52:21;98662.78;;;-5.67;71.62
52591;BME280;38483;42.620;25.394;2023-02-11T03:54:53;98667.47;;;-5.56;71.16
52591;BME280;38483;42.620;25.394;2023-02-11T03:57:21;98662.56;;;-5.72;71.10
52591;BME280;38483;42.620;25.394;2023-02-11T03:59:56;98653.25;;;-5.94;71.37
52591;BME280;38483;42.620;25.394;2023-02-11T04:02:28;98660.06;;;-5.91;72.27
52591;BME280;38483;42.620;25.394;2023-02-11T04:04:56;98646.94;;;-5.84;71.88
52591;BME280;38483;42.620;25.394;2023-02-11T04:07:23;98656.63;;;-5.93;71.99
52591;BME280;38483;42.620;25.394;2023-02-11T04:09:51;98666.56;;;-5.77;72.15
52591;BME280;38483;42.620;25.394;2023-02-11T04:12:18;98673.34;;;-5.95;71.38
52591;BME280;38483;42.620;25.394;2023-02-11T04:14:45;98672.94;;;-6.04;72.42
52591;BME280;38483;42.620;25.394;2023-02-11T04:17:12;98668.47;;;-6.10;71.36
52591;BME280;38483;42.620;25.394;2023-02-11T04:19:39;98666.97;;;-6.06;71.90
52591;BME280;38483;42.620;25.394;2023-02-11T04:22:06;98667.56;;;-5.93;71.48
52591;BME280;38483;42.620;25.394;2023-02-11T04:24:34;98675.72;;;-5.79;71.15
52591;BME280;38483;42.620;25.394;2023-02-11T04:27:01;98666.41;;;-5.61;70.91
52591;BME280;38483;42.620;25.394;2023-02-11T04:29:28;98662.69;;;-5.50;70.34
52591;BME280;38483;42.620;25.394;2023-02-11T04:31:55;98665.34;;;-5.47;70.42
52591;BME280;38483;42.620;25.394;2023-02-11T04:34:22;98672.19;;;-5.44;69.67
52591;BME280;38483;42.620;25.394;2023-02-11T04:36:50;98666.13;;;-5.48;70.18
52591;BME280;38483;42.620;25.394;2023-02-11T04:39:17;98668.28;;;-5.57;70.16
52591;BME280;38483;42.620;25.394;2023-02-11T04:41:44;98656.91;;;-5.66;70.57
52591;BME280;38483;42.620;25.394;2023-02-11T04:44:11;98648.31;;;-5.71;70.47
52591;BME280;38483;42.620;25.394;2023-02-11T04:46:38;98656.06;;;-5.67;70.28
52591;BME280;38483;42.620;25.394;2023-02-11T04:49:05;98654.53;;;-5.83;70.47
52591;BME280;38483;42.620;25.394;2023-02-11T04:51:32;98646.41;;;-5.96;72.14
52591;BME280;38483;42.620;25.394;2023-02-11T04:53:59;98643.66;;;-5.82;70.94
52591;BME280;38483;42.620;25.394;2023-02-11T04:56:26;98641.09;;;-6.02;71.55
52591;BME280;38483;42.620;25.394;2023-02-11T04:58:53;98638.38;;;-6.07;71.70
52591;BME280;38483;42.620;25.394;2023-02-11T05:01:20;98645.78;;;-6.10;72.21
52591;BME280;38483;42.620;25.394;2023-02-11T05:03:48;98637.56;;;-6.25;72.24
52591;BME280;38483;42.620;25.394;2023-02-11T05:06:15;98627.66;;;-6.39;73.26
52591;BME280;38483;42.620;25.394;2023-02-11T05:08:42;98642.13;;;-6.35;73.75
52591;BME280;38483;42.620;25.394;2023-02-11T05:11:15;98635.09;;;-6.23;73.07
52591;BME280;38483;42.620;25.394;2023-02-11T05:13:42;98626.88;;;-6.19;73.16
52591;BME280;38483;42.620;25.394;2023-02-11T05:16:10;98632.84;;;-6.17;73.31
52591;BME280;38483;42.620;25.394;2023-02-11T05:18:37;98644.47;;;-6.21;73.08
52591;BME280;38483;42.620;25.394;2023-02-11T05:21:08;98633.38;;;-6.05;74.03
52591;BME280;38483;42.620;25.394;2023-02-11T05:23:36;98635.94;;;-5.86;72.21
52591;BME280;38483;42.620;25.394;2023-02-11T05:26:03;98636.09;;;-5.82;71.77
52591;BME280;38483;42.620;25.394;2023-02-11T05:28:30;98632.72;;;-5.82;72.27
52591;BME280;38483;42.620;25.394;2023-02-11T05:30:58;98635.72;;;-5.91;72.05
52591;BME280;38483;42.620;25.394;2023-02-11T05:33:25;98646.16;;;-6.02;72.46
52591;BME280;38483;42.620;25.394;2023-02-11T05:36:06;98629.47;;;-6.18;72.37
52591;BME280;38483;42.620;25.394;2023-02-11T05:38:34;98638.41;;;-6.24;73.16
52591;BME280;38483;42.620;25.394;2023-02-11T05:41:03;98613.00;;;-6.48;73.53
52591;BME280;38483;42.620;25.394;2023-02-11T05:43:30;98631.50;;;-6.47;72.98
52591;BME280;38483;42.620;25.394;2023-02-11T05:45:58;98641.91;;;-6.40;72.59
52591;BME280;38483;42.620;25.394;2023-02-11T05:48:25;98625.66;;;-6.46;73.25
52591;BME280;38483;42.620;25.394;2023-02-11T05:50:52;98636.53;;;-6.28;72.26
52591;BME280;38483;42.620;25.394;2023-02-11T05:53:18;98638.28;;;-6.27;72.72
52591;BME280;38483;42.620;25.394;2023-02-11T05:55:45;98642.94;;;-6.17;72.26
52591;BME280;38483;42.620;25.394;2023-02-11T05:58:12;98640.56;;;-6.14;71.88
52591;BME280;38483;42.620;25.394;2023-02-11T06:00:39;98651.56;;;-5.93;71.29
52591;BME280;38483;42.620;25.394;2023-02-11T06:03:06;98645.09;;;-5.88;71.18
52591;BME280;38483;42.620;25.394;2023-02-11T06:05:33;98640.41;;;-5.79;70.77
52591;BME280;38483;42.620;25.394;2023-02-11T06:08:00;98639.25;;;-5.66;70.13
52591;BME280;38483;42.620;25.394;2023-02-11T06:10:27;98638.97;;;-5.53;69.94
52591;BME280;38483;42.620;25.394;2023-02-11T06:12:54;98639.44;;;-5.43;69.42
52591;BME280;38483;42.620;25.394;2023-02-11T06:15:21;98642.22;;;-5.37;69.06
52591;BME280;38483;42.620;25.394;2023-02-11T06:17:48;98642.59;;;-5.28;69.28
52591;BME280;38483;42.620;25.394;2023-02-11T06:20:15;98640.00;;;-5.29;68.79
52591;BME280;38483;42.620;25.394;2023-02-11T06:22:42;98650.53;;;-5.19;68.33
52591;BME280;38483;42.620;25.394;2023-02-11T06:25:09;98641.84;;;-5.05;68.14
52591;BME280;38483;42.620;25.394;2023-02-11T06:27:37;98641.56;;;-4.91;68.97
52591;BME280;38483;42.620;25.394;2023-02-11T06:30:05;98647.13;;;-4.78;67.66
52591;BME280;38483;42.620;25.394;2023-02-11T06:32:32;98649.50;;;-4.82;68.29
52591;BME280;38483;42.620;25.394;2023-02-11T06:35:15;98629.66;;;-4.94;68.20
52591;BME280;38483;42.620;25.394;2023-02-11T06:37:42;98643.13;;;-4.73;67.82
52591;BME280;38483;42.620;25.394;2023-02-11T06:40:10;98638.56;;;-4.61;68.01
52591;BME280;38483;42.620;25.394;2023-02-11T06:42:38;98644.38;;;-4.41;67.57
52591;BME280;38483;42.620;25.394;2023-02-11T06:45:06;98633.69;;;-4.34;66.67
52591;BME280;38483;42.620;25.394;2023-02-11T06:47:35;98638.63;;;-4.15;66.97
52591;BME280;38483;42.620;25.394;2023-02-11T06:50:04;98640.13;;;-3.98;66.32
52591;BME280;38483;42.620;25.394;2023-02-11T06:52:35;98640.47;;;-3.87;67.00
52591;BME280;38483;42.620;25.394;2023-02-11T06:55:02;98633.44;;;-3.72;66.66
52591;BME280;38483;42.620;25.394;2023-02-11T06:57:33;98647.25;;;-3.39;65.96
52591;BME280;38483;42.620;25.394;2023-02-11T07:00:07;98637.66;;;-3.24;64.33
52591;BME280;38483;42.620;25.394;2023-02-11T07:02:35;98640.28;;;-3.21;64.48
52591;BME280;38483;42.620;25.394;2023-02-11T07:05:04;98641.63;;;-2.80;63.92
52591;BME280;38483;42.620;25.394;2023-02-11T07:07:32;98646.94;;;-2.46;63.43
52591;BME280;38483;42.620;25.394;2023-02-11T07:10:00;98635.56;;;-2.30;61.92
52591;BME280;38483;42.620;25.394;2023-02-11T07:12:29;98630.25;;;-2.10;62.27
52591;BME280;38483;42.620;25.394;2023-02-11T07:14:57;98636.34;;;-2.05;61.51
52591;BME280;38483;42.620;25.394;2023-02-11T07:17:24;98622.44;;;-2.17;60.86
52591;BME280;38483;42.620;25.394;2023-02-11T07:19:50;98634.06;;;-1.96;60.16
52591;BME280;38483;42.620;25.394;2023-02-11T07:22:17;98626.66;;;-1.88;59.20
52591;BME280;38483;42.620;25.394;2023-02-11T07:24:44;98624.59;;;-1.72;59.63
52591;BME280;38483;42.620;25.394;2023-02-11T07:27:11;98631.97;;;-1.49;58.88
52591;BME280;38483;42.620;25.394;2023-02-11T07:29:40;98627.66;;;-1.52;58.32
52591;BME280;38483;42.620;25.394;2023-02-11T07:32:08;98599.75;;;-1.50;56.88
52591;BME280;38483;42.620;25.394;2023-02-11T07:34:35;98613.38;;;-1.16;57.36
52591;BME280;38483;42.620;25.394;2023-02-11T07:37:04;98628.84;;;-1.07;56.13
52591;BME280;38483;42.620;25.394;2023-02-11T07:39:31;98619.81;;;-0.96;55.64
52591;BME280;38483;42.620;25.394;2023-02-11T07:41:59;98616.63;;;-0.87;55.64
52591;BME280;38483;42.620;25.394;2023-02-11T07:44:26;98626.81;;;-0.87;54.79
52591;BME280;38483;42.620;25.394;2023-02-11T07:46:54;98622.75;;;-0.80;54.06
52591;BME280;38483;42.620;25.394;2023-02-11T07:49:21;98629.13;;;-0.62;54.30
52591;BME280;38483;42.620;25.394;2023-02-11T07:51:51;98608.69;;;-0.65;54.05
52591;BME280;38483;42.620;25.394;2023-02-11T07:54:19;98624.34;;;-0.48;53.20
52591;BME280;38483;42.620;25.394;2023-02-11T07:56:46;98620.44;;;-0.33;52.83
52591;BME280;38483;42.620;25.394;2023-02-11T07:59:13;98614.25;;;-0.44;52.54
52591;BME280;38483;42.620;25.394;2023-02-11T08:01:40;98621.44;;;-0.25;51.86
52591;BME280;38483;42.620;25.394;2023-02-11T08:04:07;98619.38;;;-0.04;51.10
52591;BME280;38483;42.620;25.394;2023-02-11T08:06:34;98616.28;;;0.11;50.64
52591;BME280;38483;42.620;25.394;2023-02-11T08:09:07;98612.22;;;0.21;49.87
52591;BME280;38483;42.620;25.394;2023-02-11T08:11:35;98608.22;;;0.32;52.18
52591;BME280;38483;42.620;25.394;2023-02-11T08:14:02;98596.44;;;0.37;49.37
52591;BME280;38483;42.620;25.394;2023-02-11T08:16:32;98606.19;;;0.59;49.03
52591;BME280;38483;42.620;25.394;2023-02-11T08:19:02;98610.09;;;0.87;49.46
52591;BME280;38483;42.620;25.394;2023-02-11T08:21:30;98592.97;;;0.79;48.39
52591;BME280;38483;42.620;25.394;2023-02-11T08:23:57;98603.28;;;0.87;49.02
52591;BME280;38483;42.620;25.394;2023-02-11T08:26:27;98590.00;;;1.06;47.78
52591;BME280;38483;42.620;25.394;2023-02-11T08:28:56;98608.97;;;1.22;48.02
52591;BME280;38483;42.620;25.394;2023-02-11T08:31:32;98575.75;;;1.17;46.86
52591;BME280;38483;42.620;25.394;2023-02-11T08:34:01;98604.72;;;1.22;46.42
52591;BME280;38483;42.620;25.394;2023-02-11T08:36:31;98600.78;;;1.42;46.93
52591;BME280;38483;42.620;25.394;2023-02-11T08:39:00;98605.38;;;1.64;46.44
52591;BME280;38483;42.620;25.394;2023-02-11T08:41:54;98594.38;;;1.69;47.25
52591;BME280;38483;42.620;25.394;2023-02-11T08:44:25;98597.09;;;1.81;45.65
52591;BME280;38483;42.620;25.394;2023-02-11T08:46:52;98592.94;;;1.89;45.11
52591;BME280;38483;42.620;25.394;2023-02-11T08:49:20;98581.97;;;1.96;45.41
52591;BME280;38483;42.620;25.394;2023-02-11T08:51:48;98561.44;;;1.88;44.86
52591;BME280;38483;42.620;25.394;2023-02-11T08:54:16;98589.78;;;2.08;44.67
52591;BME280;38483;42.620;25.394;2023-02-11T08:56:44;98590.47;;;1.95;44.34
52591;BME280;38483;42.620;25.394;2023-02-11T08:59:14;98586.13;;;1.89;44.99
52591;BME280;38483;42.620;25.394;2023-02-11T09:01:42;98594.78;;;2.00;44.81
52591;BME280;38483;42.620;25.394;2023-02-11T09:04:10;98554.56;;;1.84;43.60
52591;BME280;38483;42.620;25.394;2023-02-11T09:06:37;98583.88;;;2.12;43.10
52591;BME280;38483;42.620;25.394;2023-02-11T09:09:04;98574.41;;;2.03;43.51
52591;BME280;38483;42.620;25.394;2023-02-11T09:11:34;98578.03;;;2.23;44.75
52591;BME280;38483;42.620;25.394;2023-02-11T09:14:02;98573.91;;;2.36;44.29
52591;BME280;38483;42.620;25.394;2023-02-11T09:16:32;98573.00;;;2.29;43.81
52591;BME280;38483;42.620;25.394;2023-02-11T09:19:00;98576.22;;;2.12;43.43
52591;BME280;38483;42.620;25.394;2023-02-11T09:21:28;98559.53;;;2.45;45.22
52591;BME280;38483;42.620;25.394;2023-02-11T09:23:56;98546.69;;;2.38;44.72
52591;BME280;38483;42.620;25.394;2023-02-11T09:26:25;98551.97;;;2.56;44.18
52591;BME280;38483;42.620;25.394;2023-02-11T09:28:54;98525.53;;;2.53;42.69
52591;BME280;38483;42.620;25.394;2023-02-11T09:31:23;98536.72;;;2.65;42.38
52591;BME280;38483;42.620;25.394;2023-02-11T09:33:53;98537.81;;;2.90;42.52
52591;BME280;38483;42.620;25.394;2023-02-11T09:36:23;98520.94;;;3.14;41.89
52591;BME280;38483;42.620;25.394;2023-02-11T09:38:51;98526.03;;;3.13;41.90
52591;BME280;38483;42.620;25.394;2023-02-11T09:43:54;98517.53;;;3.18;41.74
52591;BME280;38483;42.620;25.394;2023-02-11T09:46:23;98520.94;;;3.14;41.49
52591;BME280;38483;42.620;25.394;2023-02-11T09:48:53;98503.06;;;3.19;41.56
52591;BME280;38483;42.620;25.394;2023-02-11T09:54:04;98495.44;;;3.33;41.64
52591;BME280;38483;42.620;25.394;2023-02-11T09:56:33;98494.66;;;3.43;41.00
52591;BME280;38483;42.620;25.394;2023-02-11T09:59:00;98449.34;;;3.23;40.79
52591;BME280;38483;42.620;25.394;2023-02-11T10:01:43;98486.06;;;3.33;39.13
52591;BME280;38483;42.620;25.394;2023-02-11T10:04:48;98480.19;;;3.48;39.54
52591;BME280;38483;42.620;25.394;2023-02-11T10:07:45;98434.06;;;3.45;39.67
52591;BME280;38483;42.620;25.394;2023-02-11T10:18:39;98452.25;;;4.16;38.61
52591;BME280;38483;42.620;25.394;2023-02-11T10:21:23;98449.66;;;4.05;37.95
52591;BME280;38483;42.620;25.394;2023-02-11T10:23:56;98444.50;;;3.99;37.78
52591;BME280;38483;42.620;25.394;2023-02-11T10:26:29;98430.81;;;3.85;37.75
52591;BME280;38483;42.620;25.394;2023-02-11T10:29:01;98438.53;;;4.10;37.75
52591;BME280;38483;42.620;25.394;2023-02-11T10:31:41;98427.47;;;4.19;38.61
52591;BME280;38483;42.620;25.394;2023-02-11T10:34:12;98426.63;;;4.38;38.03
52591;BME280;38483;42.620;25.394;2023-02-11T10:36:42;98422.34;;;4.37;37.68
52591;BME280;38483;42.620;25.394;2023-02-11T10:39:14;98419.78;;;4.48;37.76
52591;BME280;38483;42.620;25.394;2023-02-11T10:42:04;98416.38;;;4.53;37.46
52591;BME280;38483;42.620;25.394;2023-02-11T10:44:40;98407.81;;;4.65;36.94
52591;BME280;38483;42.620;25.394;2023-02-11T10:47:18;98379.59;;;4.66;36.86
52591;BME280;38483;42.620;25.394;2023-02-11T10:49:47;98390.69;;;4.74;37.36
52591;BME280;38483;42.620;25.394;2023-02-11T10:57:27;98376.13;;;4.87;35.60
52591;BME280;38483;42.620;25.394;2023-02-11T10:59:58;98371.00;;;4.88;36.46
52591;BME280;38483;42.620;25.394;2023-02-11T11:02:29;98365.03;;;4.85;36.12
52591;BME280;38483;42.620;25.394;2023-02-11T11:05:05;98362.44;;;4.92;36.46
52591;BME280;38483;42.620;25.394;2023-02-11T11:07:32;98345.34;;;4.82;35.47
52591;BME280;38483;42.620;25.394;2023-02-11T11:12:50;98359.00;;;5.09;35.34
52591;BME280;38483;42.620;25.394;2023-02-11T11:15:21;98352.13;;;5.15;35.59
52591;BME280;38483;42.620;25.394;2023-02-11T11:17:50;98350.38;;;5.23;34.62
52591;BME280;38483;42.620;25.394;2023-02-11T11:20:58;98335.88;;;5.07;33.82
52591;BME280;38483;42.620;25.394;2023-02-11T11:23:27;98332.38;;;5.29;34.11
52591;BME280;38483;42.620;25.394;2023-02-11T11:28:40;98327.03;;;5.70;34.04
52591;BME280;38483;42.620;25.394;2023-02-11T11:31:33;98326.06;;;5.89;35.98
52591;BME280;38483;42.620;25.394;2023-02-11T11:34:21;98315.78;;;5.89;34.83
52591;BME280;38483;42.620;25.394;2023-02-11T11:36:49;98316.66;;;5.79;33.75
52591;BME280;38483;42.620;25.394;2023-02-11T11:41:54;98311.63;;;5.68;34.17
52591;BME280;38483;42.620;25.394;2023-02-11T11:47:03;98296.97;;;5.81;33.87
52591;BME280;38483;42.620;25.394;2023-02-11T11:55:10;98287.38;;;6.07;31.56
52591;BME280;38483;42.620;25.394;2023-02-11T11:57:39;98291.59;;;6.16;32.20
52591;BME280;38483;42.620;25.394;2023-02-11T12:00:14;98277.94;;;6.09;32.07
52591;BME280;38483;42.620;25.394;2023-02-11T12:09:03;98268.44;;;6.14;32.86
52591;BME280;38483;42.620;25.394;2023-02-11T12:11:37;98266.84;;;6.01;32.68
52591;BME280;38483;42.620;25.394;2023-02-11T12:19:24;98255.69;;;6.04;32.73
52591;BME280;38483;42.620;25.394;2023-02-11T12:22:10;98247.00;;;6.15;31.84
52591;BME280;38483;42.620;25.394;2023-02-11T12:24:44;98246.00;;;6.31;33.11
52591;BME280;38483;42.620;25.394;2023-02-11T12:30:08;98241.81;;;6.21;30.58
52591;BME280;38483;42.620;25.394;2023-02-11T12:32:43;98244.50;;;6.06;31.41
52591;BME280;38483;42.620;25.394;2023-02-11T12:38:04;98245.25;;;6.19;31.22
52591;BME280;38483;42.620;25.394;2023-02-11T12:43:35;98198.28;;;6.00;30.03
52591;BME280;38483;42.620;25.394;2023-02-11T12:54:29;98211.06;;;6.09;27.95
52591;BME280;38483;42.620;25.394;2023-02-11T13:00:06;98212.59;;;6.28;28.29
52591;BME280;38483;42.620;25.394;2023-02-11T13:05:50;98201.53;;;6.19;28.68
52591;BME280;38483;42.620;25.394;2023-02-11T13:11:03;98207.50;;;6.21;29.80
52591;BME280;38483;42.620;25.394;2023-02-11T13:24:47;98189.41;;;6.31;30.55
52591;BME280;38483;42.620;25.394;2023-02-11T13:30:30;98186.00;;;6.29;29.45
52591;BME280;38483;42.620;25.394;2023-02-11T13:33:01;98193.81;;;6.19;29.05
52591;BME280;38483;42.620;25.394;2023-02-11T13:39:24;98010.75;;;5.05;30.11
52591;BME280;38483;42.620;25.394;2023-02-11T13:42:03;98185.22;;;6.24;29.82
52591;BME280;38483;42.620;25.394;2023-02-11T13:44:32;98164.78;;;6.09;30.03
52591;BME280;38483;42.620;25.394;2023-02-11T13:47:03;98180.03;;;6.27;30.20
52591;BME280;38483;42.620;25.394;2023-02-11T13:49:34;98189.38;;;6.34;29.60
52591;BME280;38483;42.620;25.394;2023-02-11T13:52:04;98176.53;;;6.33;28.81
52591;BME280;38483;42.620;25.394;2023-02-11T13:54:37;98174.00;;;6.30;29.27
52591;BME280;38483;42.620;25.394;2023-02-11T13:59:51;98170.41;;;6.43;29.30
52591;BME280;38483;42.620;25.394;2023-02-11T14:05:28;98159.44;;;6.30;29.50
52591;BME280;38483;42.620;25.394;2023-02-11T14:08:22;98153.53;;;6.19;30.67
52591;BME280;38483;42.620;25.394;2023-02-11T14:11:49;98143.44;;;6.00;31.35
52591;BME280;38483;42.620;25.394;2023-02-11T14:14:30;98148.53;;;6.04;31.39
52591;BME280;38483;42.620;25.394;2023-02-11T14:22:43;98125.47;;;5.98;30.39
52591;BME280;38483;42.620;25.394;2023-02-11T14:25:23;98136.59;;;6.02;30.93
52591;BME280;38483;42.620;25.394;2023-02-11T14:30:48;98130.59;;;5.98;30.54
52591;BME280;38483;42.620;25.394;2023-02-11T14:33:38;98122.13;;;5.90;30.35
52591;BME280;38483;42.620;25.394;2023-02-11T14:36:22;98129.78;;;5.95;30.01
52591;BME280;38483;42.620;25.394;2023-02-11T14:41:54;98127.19;;;5.96;30.23
52591;BME280;38483;42.620;25.394;2023-02-11T14:44:27;98113.63;;;5.84;31.37
52591;BME280;38483;42.620;25.394;2023-02-11T14:46:56;98110.34;;;5.66;31.93
52591;BME280;38483;42.620;25.394;2023-02-11T14:49:30;98116.50;;;5.44;31.87
52591;BME280;38483;42.620;25.394;2023-02-11T14:52:05;98127.63;;;5.49;31.70
52591;BME280;38483;42.620;25.394;2023-02-11T14:54:33;98129.28;;;5.55;31.67
52591;BME280;38483;42.620;25.394;2023-02-11T14:57:19;98114.72;;;5.52;32.18
52591;BME280;38483;42.620;25.394;2023-02-11T15:00:03;98126.72;;;5.55;32.75
52591;BME280;38483;42.620;25.394;2023-02-11T15:02:35;98101.31;;;5.23;32.84
52591;BME280;38483;42.620;25.394;2023-02-11T15:05:25;98115.81;;;5.26;33.03
52591;BME280;38483;42.620;25.394;2023-02-11T15:08:01;98113.25;;;5.24;32.02
52591;BME280;38483;42.620;25.394;2023-02-11T15:10:35;98118.44;;;5.20;32.98
52591;BME280;38483;42.620;25.394;2023-02-11T15:13:04;98132.13;;;5.23;33.00
52591;BME280;38483;42.620;25.394;2023-02-11T15:15:31;98112.50;;;5.12;32.52
52591;BME280;38483;42.620;25.394;2023-02-11T15:18:02;98122.78;;;5.07;33.18
52591;BME280;38483;42.620;25.394;2023-02-11T15:20:33;98110.78;;;5.14;32.47
52591;BME280;38483;42.620;25.394;2023-02-11T15:23:04;98116.81;;;5.05;33.66
52591;BME280;38483;42.620;25.394;2023-02-11T15:25:41;98097.28;;;4.87;33.24
52591;BME280;38483;42.620;25.394;2023-02-11T15:28:26;98116.91;;;4.91;33.79
52591;BME280;38483;42.620;25.394;2023-02-11T15:30:59;98102.44;;;4.83;33.45
52591;BME280;38483;42.620;25.394;2023-02-11T15:33:31;98119.56;;;4.81;34.20
52591;BME280;38483;42.620;25.394;2023-02-11T15:36:01;98114.44;;;4.76;33.44
52591;BME280;38483;42.620;25.394;2023-02-11T15:38:28;98102.63;;;4.51;33.44
52591;BME280;38483;42.620;25.394;2023-02-11T15:41:01;98091.53;;;4.42;32.49
52591;BME280;38483;42.620;25.394;2023-02-11T15:43:45;98090.66;;;4.47;32.78